Time;durP1;ratioP1;P1;durP2;ratioP2;P2;SDS_P1;SDS_P2;PMS_P1;PMS_P2;Temp;Humidity;BMP_temperature;BMP_pressure;BME280_temperature;BME280_humidity;BME280_pressure;Samples;Min_cycle;Max_cycle;Signal;HPM_P1;HPM_P2
2022/07/08 00:01:06;;;;;;;1.10;0.87;;;;;;;16.23;56.97;96873.88;10320270;28;96916;-68
2022/07/08 00:06:09;;;;;;;1.48;1.00;;;;;;;16.20;56.85;96866.31;10330608;28;97934;-68
2022/07/08 00:11:12;;;;;;;2.03;1.25;;;;;;;16.11;57.06;96880.50;10316019;28;98100;-68
2022/07/08 00:16:16;;;;;;;1.85;0.98;;;;;;;16.12;57.40;96876.03;10302259;28;97191;-68
2022/07/08 00:21:20;;;;;;;3.30;0.93;;;;;;;16.07;57.13;96889.72;10313556;28;97728;-68
2022/07/08 00:26:23;;;;;;;1.83;0.90;;;;;;;16.02;57.21;96887.59;10336289;28;96977;-69
2022/07/08 00:31:28;;;;;;;1.27;0.93;;;;;;;15.97;57.62;96881.97;10325118;28;96836;-68
2022/07/08 00:36:31;;;;;;;;;;;;;;;15.99;56.86;96892.38;10329295;28;98156;-68
2022/07/08 00:41:34;;;;;;;1.42;0.90;;;;;;;15.98;57.55;96888.06;10328838;28;98695;-68
2022/07/08 00:46:38;;;;;;;1.75;1.10;;;;;;;15.98;58.25;96890.72;10330842;28;97685;-68
2022/07/08 00:51:42;;;;;;;1.83;0.88;;;;;;;15.96;57.81;96895.31;10323329;28;97274;-68
2022/07/08 00:56:46;;;;;;;1.40;1.00;;;;;;;15.92;58.42;96897.47;10324568;28;97982;-68
2022/07/08 01:01:50;;;;;;;1.60;1.00;;;;;;;15.88;58.49;96891.72;10321834;28;98632;-68
2022/07/08 01:06:53;;;;;;;1.83;1.05;;;;;;;15.80;58.41;96896.16;10331903;28;96845;-69
2022/07/08 01:11:56;;;;;;;1.58;1.02;;;;;;;15.76;59.15;96893.03;10316460;28;98948;-68
2022/07/08 01:17:00;;;;;;;1.88;0.90;;;;;;;15.68;59.73;96901.72;10312441;28;97172;-68
2022/07/08 01:22:05;;;;;;;1.52;0.90;;;;;;;15.72;59.37;96897.00;10332049;28;96841;-68
2022/07/08 01:27:08;;;;;;;1.95;0.93;;;;;;;15.71;59.00;96892.69;10329566;28;97452;-68
2022/07/08 01:32:11;;;;;;;1.48;0.70;;;;;;;15.56;59.54;96892.47;10324671;28;97265;-69
2022/07/08 01:37:15;;;;;;;1.70;0.73;;;;;;;15.60;59.65;96900.91;10326322;28;97902;-68
2022/07/08 01:42:21;;;;;;;1.63;1.00;;;;;;;15.68;60.24;96901.72;10326675;28;96840;-68
2022/07/08 01:47:23;;;;;;;1.70;1.00;;;;;;;15.87;59.27;96895.31;10310277;28;97716;-69
2022/07/08 01:52:28;;;;;;;1.10;1.00;;;;;;;16.04;59.21;96895.31;10322241;28;99399;-68
2022/07/08 01:57:31;;;;;;;2.83;1.08;;;;;;;16.04;58.87;96897.97;10341120;28;97778;-68
2022/07/08 02:02:34;;;;;;;2.08;0.80;;;;;;;15.99;59.07;96895.81;10341733;28;96715;-68
2022/07/08 02:07:39;;;;;;;1.73;0.90;;;;;;;15.98;59.27;96901.25;10336367;28;96862;-68
2022/07/08 02:12:41;;;;;;;;;;;;;;;15.93;58.76;96893.84;10317528;28;96741;-68
2022/07/08 02:17:45;;;;;;;0.75;0.68;;;;;;;15.93;58.49;96893.84;10334032;28;97213;-68
2022/07/08 02:22:49;;;;;;;2.10;0.90;;;;;;;15.81;59.34;96885.44;10339220;28;97311;-68
2022/07/08 02:27:52;;;;;;;1.10;0.80;;;;;;;15.75;59.08;96891.38;10334711;28;96734;-68
2022/07/08 02:32:55;;;;;;;1.95;0.80;;;;;;;15.67;60.34;96891.38;10334592;28;96837;-68
2022/07/08 02:37:59;;;;;;;2.55;0.90;;;;;;;15.61;59.84;96889.38;10335529;28;96902;-68
2022/07/08 02:43:02;;;;;;;2.43;1.20;;;;;;;15.62;60.15;96880.50;10335936;28;96893;-68
2022/07/08 02:48:05;;;;;;;1.55;1.00;;;;;;;15.66;60.49;96882.63;10325114;28;96925;-68
2022/07/08 02:53:10;;;;;;;1.80;1.00;;;;;;;15.72;61.45;96894.34;10342199;28;98454;-68
2022/07/08 02:58:13;;;;;;;2.13;1.10;;;;;;;15.75;61.37;96898.47;10348709;28;97629;-68
2022/07/08 03:03:16;;;;;;;3.22;1.55;;;;;;;15.74;61.32;96889.75;10330847;28;97501;-68
2022/07/08 03:08:20;;;;;;;1.95;0.88;;;;;;;15.74;61.37;96897.63;10325852;28;97125;-68
2022/07/08 03:13:23;;;;;;;1.10;1.00;;;;;;;15.72;61.38;96901.41;10329440;28;97487;-68
2022/07/08 03:18:25;;;;;;;1.48;1.00;;;;;;;15.64;61.62;96902.25;10333920;28;98523;-68
2022/07/08 03:23:31;;;;;;;1.25;0.93;;;;;;;15.63;62.23;96895.31;10330146;28;98070;-68
2022/07/08 03:28:33;;;;;;;;;;;;;;;15.55;62.02;96906.66;10339043;28;97657;-68
2022/07/08 03:33:36;;;;;;;1.33;0.82;;;;;;;15.48;62.64;96908.28;10331260;28;96732;-68
2022/07/08 03:38:40;;;;;;;1.50;1.00;;;;;;;15.46;62.72;96923.38;10334128;28;96742;-68
2022/07/08 03:43:43;;;;;;;2.77;1.27;;;;;;;15.45;62.73;96922.56;10326677;28;97206;-68
2022/07/08 03:48:46;;;;;;;1.90;1.20;;;;;;;15.41;62.59;96926.53;10324232;28;98099;-68
2022/07/08 03:53:51;;;;;;;1.92;1.25;;;;;;;15.34;63.33;96930.78;10328384;28;98735;-68
2022/07/08 03:58:54;;;;;;;1.88;1.00;;;;;;;15.33;62.85;96934.41;10329564;28;96779;-67
2022/07/08 04:03:56;;;;;;;4.07;1.30;;;;;;;15.32;63.47;96944.13;10330817;28;96788;-68
2022/07/08 04:09:01;;;;;;;1.52;1.30;;;;;;;15.37;63.58;96951.50;10330588;28;96727;-67
2022/07/08 04:14:04;;;;;;;1.45;1.10;;;;;;;15.32;63.56;96964.31;10329050;28;97208;-68
2022/07/08 04:19:07;;;;;;;1.25;1.00;;;;;;;15.32;63.68;96965.16;10328502;28;97581;-67
2022/07/08 04:24:11;;;;;;;1.20;0.95;;;;;;;15.31;63.27;96968.78;10331344;28;97415;-67
2022/07/08 04:29:14;;;;;;;1.70;1.30;;;;;;;15.35;63.38;96977.19;10330648;28;96819;-68
2022/07/08 04:34:17;;;;;;;1.42;1.00;;;;;;;15.32;63.40;96983.59;10327387;28;98715;-68
2022/07/08 04:39:21;;;;;;;2.53;1.20;;;;;;;15.40;62.81;96985.41;10336815;28;97816;-68
2022/07/08 04:44:24;;;;;;;2.88;1.33;;;;;;;15.48;62.57;96990.72;10329599;28;96859;-68
2022/07/08 04:49:27;;;;;;;1.30;0.93;;;;;;;15.60;62.69;97000.97;10338629;28;98315;-68
2022/07/08 04:54:31;;;;;;;3.47;1.30;;;;;;;15.62;61.99;96996.41;10331820;28;97195;-68
2022/07/08 04:59:34;;;;;;;2.00;1.20;;;;;;;15.73;62.38;96996.06;10329936;28;96919;-67
2022/07/08 05:04:37;;;;;;;2.50;1.40;;;;;;;15.78;62.01;96995.59;10330616;28;96852;-68
2022/07/08 05:09:42;;;;;;;1.52;1.25;;;;;;;15.82;61.66;97008.28;10330569;28;96781;-68
2022/07/08 05:14:45;;;;;;;2.33;1.40;;;;;;;15.90;61.44;97009.31;10330679;28;97333;-67
2022/07/08 05:19:47;;;;;;;2.70;1.42;;;;;;;15.97;61.62;97002.38;10330139;28;96771;-68
2022/07/08 05:24:52;;;;;;;1.65;1.13;;;;;;;16.04;61.54;97000.75;10329762;28;97957;-68
2022/07/08 05:29:55;;;;;;;1.83;1.10;;;;;;;16.16;61.30;97009.97;10331965;28;97085;-68
2022/07/08 05:34:58;;;;;;;1.75;1.13;;;;;;;16.25;60.48;97003.72;10337380;28;96961;-67
2022/07/08 05:40:02;;;;;;;1.30;1.02;;;;;;;16.40;59.47;97010.97;10329761;28;97068;-68
2022/07/08 05:45:06;;;;;;;2.25;1.10;;;;;;;16.51;59.30;97008.00;10333401;28;97331;-68
2022/07/08 05:50:11;;;;;;;5.73;1.73;;;;;;;16.59;59.46;97002.72;10331101;28;97619;-69
2022/07/08 05:55:15;;;;;;;;;;;;;;;16.69;59.24;97009.63;10315348;28;96969;-69
2022/07/08 06:00:19;;;;;;;2.00;1.05;;;;;;;16.71;59.31;97012.91;10327572;28;97101;-68
2022/07/08 06:05:22;;;;;;;4.43;1.15;;;;;;;16.76;59.10;97010.63;10322253;28;98052;-68
2022/07/08 06:10:27;;;;;;;1.45;1.08;;;;;;;16.81;59.19;97017.06;10336431;28;96908;-68
2022/07/08 06:15:30;;;;;;;3.70;1.20;;;;;;;16.91;58.30;97010.78;10317973;28;97456;-67
2022/07/08 06:20:33;;;;;;;1.83;0.77;;;;;;;16.99;58.14;97008.13;10329065;28;96956;-68
2022/07/08 06:25:37;;;;;;;1.83;0.88;;;;;;;17.13;57.62;97011.88;10332772;28;96869;-68
2022/07/08 06:30:40;;;;;;;1.27;1.02;;;;;;;17.18;57.25;97012.19;10341419;28;98772;-69
2022/07/08 06:35:44;;;;;;;2.25;0.90;;;;;;;17.22;56.91;97016.13;10330793;28;99240;-69
2022/07/08 06:40:48;;;;;;;2.17;1.10;;;;;;;17.23;56.83;97015.16;10325474;28;99524;-69
2022/07/08 06:45:51;;;;;;;2.10;1.10;;;;;;;17.31;56.60;97020.38;10335290;28;97155;-69
2022/07/08 06:50:54;;;;;;;1.70;1.02;;;;;;;17.43;56.94;97018.19;10334979;28;96841;-69
2022/07/08 06:55:58;;;;;;;2.97;1.08;;;;;;;17.45;56.66;97004.81;10335853;28;97038;-69
2022/07/08 07:01:01;;;;;;;0.77;0.77;;;;;;;17.51;55.68;97009.41;10323847;28;96761;-69
2022/07/08 07:06:04;;;;;;;1.52;0.90;;;;;;;17.58;55.63;97010.38;10308113;28;96877;-69
2022/07/08 07:11:08;;;;;;;2.35;1.05;;;;;;;17.69;55.14;97009.16;10332458;28;96979;-69
2022/07/08 07:16:11;;;;;;;1.23;1.00;;;;;;;17.74;55.40;97004.16;10328401;28;96709;-68
2022/07/08 07:21:14;;;;;;;1.58;1.08;;;;;;;17.80;54.76;97010.56;10324783;28;96966;-69
2022/07/08 07:26:19;;;;;;;0.93;0.70;;;;;;;17.86;55.13;97007.28;10334193;28;97648;-69
2022/07/08 07:31:21;;;;;;;2.20;1.00;;;;;;;18.02;54.68;97006.34;10333887;28;96705;-69
2022/07/08 07:36:25;;;;;;;2.95;1.08;;;;;;;18.12;54.30;97002.47;10333792;28;96804;-69
2022/07/08 07:41:29;;;;;;;1.38;0.85;;;;;;;18.17;54.50;97009.88;10327773;28;96906;-69
2022/07/08 07:46:33;;;;;;;2.00;1.42;;;;;;;18.27;54.15;97004.34;10328371;28;96762;-69
2022/07/08 07:51:36;;;;;;;1.83;0.88;;;;;;;18.38;54.07;96998.63;10333119;28;96872;-69
2022/07/08 07:56:40;;;;;;;3.38;1.00;;;;;;;18.57;53.71;96994.66;10326068;28;97625;-69
2022/07/08 08:01:43;;;;;;;2.03;1.10;;;;;;;18.73;52.59;96998.97;10333272;28;96769;-69
2022/07/08 08:06:46;;;;;;;2.10;1.02;;;;;;;18.86;53.04;97003.66;10332747;28;96778;-69
2022/07/08 08:11:58;;;;;;;4.95;0.95;;;;;;;18.97;52.15;96982.06;10331700;28;96821;-67
2022/07/08 08:17:01;;;;;;;2.70;1.00;;;;;;;19.09;52.21;96977.13;10312554;28;98620;-69
2022/07/08 08:22:04;;;;;;;3.03;0.90;;;;;;;19.23;51.63;96978.94;10323005;28;98280;-69
2022/07/08 08:27:08;;;;;;;1.30;0.70;;;;;;;19.32;50.37;96982.31;10323993;28;96839;-69
2022/07/08 08:32:11;;;;;;;2.22;0.65;;;;;;;19.31;49.43;96979.84;10321027;28;99192;-69
2022/07/08 08:37:15;;;;;;;1.30;0.90;;;;;;;19.40;49.49;96995.47;10319738;28;97532;-69
2022/07/08 08:42:20;;;;;;;2.42;0.93;;;;;;;19.52;48.20;96982.56;10328786;28;96881;-69
2022/07/08 08:47:28;;;;;;;0.77;0.57;;;;;;;19.64;48.76;96980.22;10327438;28;96814;-69
2022/07/08 08:52:30;;;;;;;2.15;0.90;;;;;;;19.69;48.93;96977.03;10329757;28;97805;-69
2022/07/08 08:57:35;;;;;;;3.03;0.90;;;;;;;19.75;48.17;96965.69;10330786;28;97464;-69
2022/07/08 09:02:39;;;;;;;2.20;0.80;;;;;;;19.91;47.40;96976.06;10327471;28;96949;-69
2022/07/08 09:07:44;;;;;;;3.58;1.13;;;;;;;20.06;47.38;96968.06;10330908;28;97795;-69
2022/07/08 09:13:05;;;;;;;2.08;0.80;;;;;;;20.21;46.49;96962.69;10330382;28;96927;-69
2022/07/08 09:18:10;;;;;;;1.15;0.77;;;;;;;20.31;45.61;96960.53;10329790;28;97007;-69
2022/07/08 09:23:15;;;;;;;1.00;0.70;;;;;;;20.35;45.51;96961.75;10330224;28;96893;-69
2022/07/08 09:28:29;;;;;;;0.80;0.60;;;;;;;20.47;44.94;96956.75;10337169;28;96764;-69
2022/07/08 09:33:34;;;;;;;1.45;0.50;;;;;;;20.40;46.23;96953.25;10334548;28;96855;-69
2022/07/08 09:38:38;;;;;;;2.43;0.90;;;;;;;20.54;46.27;96954.16;10331022;28;97129;-69
2022/07/08 09:43:46;;;;;;;2.50;0.77;;;;;;;20.67;46.10;96964.88;10330124;28;97846;-69
2022/07/08 09:48:49;;;;;;;0.80;0.70;;;;;;;20.83;46.17;96952.34;10329434;28;96865;-69
2022/07/08 09:53:52;;;;;;;2.72;0.70;;;;;;;20.99;46.20;96954.69;10328824;28;98167;-69
2022/07/08 09:58:56;;;;;;;1.33;0.93;;;;;;;21.07;45.51;96954.53;10329939;28;97146;-69
2022/07/08 10:04:00;;;;;;;0.55;0.50;;;;;;;21.10;44.92;96959.44;10329785;28;97079;-69
2022/07/08 10:09:03;;;;;;;1.33;0.90;;;;;;;21.16;45.11;96967.66;10340343;28;96709;-69
2022/07/08 10:14:08;;;;;;;1.42;0.63;;;;;;;21.25;44.82;96961.16;10328912;28;97189;-69
2022/07/08 10:19:15;;;;;;;1.70;0.82;;;;;;;21.37;44.07;96962.22;10335178;28;97937;-69
2022/07/08 10:24:23;;;;;;;0.50;0.50;;;;;;;21.42;42.77;96961.63;10335661;28;96773;-69
2022/07/08 10:29:31;;;;;;;1.63;1.05;;;;;;;21.26;43.41;96968.13;10328944;28;99025;-69
2022/07/08 10:34:36;;;;;;;2.05;0.73;;;;;;;21.38;43.20;96971.84;10326674;28;96996;-69
2022/07/08 10:39:40;;;;;;;3.72;0.70;;;;;;;21.55;42.48;96964.31;10335929;28;96978;-69
2022/07/08 10:44:52;;;;;;;1.20;0.55;;;;;;;21.71;40.94;96965.84;10331288;28;97023;-70
2022/07/08 10:50:05;;;;;;;1.65;0.70;;;;;;;21.90;40.62;96963.44;10324406;28;98211;-68
2022/07/08 10:55:11;;;;;;;2.83;0.70;;;;;;;22.07;40.40;96959.38;10330871;28;98220;-69
2022/07/08 11:00:15;;;;;;;1.88;0.80;;;;;;;22.12;40.96;96969.41;10332999;28;96892;-68
2022/07/08 11:05:35;;;;;;;1.48;0.50;;;;;;;22.30;39.59;96960.81;10334660;28;96692;-68
2022/07/08 11:10:39;;;;;;;1.77;0.65;;;;;;;22.37;39.48;96961.63;10328640;28;96873;-69
2022/07/08 11:15:43;;;;;;;;;;;;;;;22.41;40.06;96963.69;10336802;28;97112;-69
2022/07/08 11:20:48;;;;;;;0.80;0.50;;;;;;;22.51;39.64;96954.50;10326074;28;96925;-69
2022/07/08 11:25:56;;;;;;;1.40;0.52;;;;;;;22.46;36.72;96947.13;10336351;28;96992;-68
2022/07/08 11:31:01;;;;;;;1.80;0.70;;;;;;;22.48;37.37;96939.75;10337271;28;96756;-70
2022/07/08 11:36:12;;;;;;;1.10;0.70;;;;;;;22.78;36.47;96940.13;10329761;28;97252;-69
2022/07/08 11:41:17;;;;;;;1.63;0.60;;;;;;;23.03;36.15;96941.28;10329075;28;97307;-69
2022/07/08 11:46:23;;;;;;;0.70;0.60;;;;;;;23.21;35.31;96943.31;10326365;28;96778;-69
2022/07/08 11:51:26;;;;;;;1.33;0.32;;;;;;;23.35;32.48;96932.38;10331917;28;97403;-69
2022/07/08 11:56:29;;;;;;;0.57;0.45;;;;;;;23.73;31.66;96933.44;10325594;28;99668;-69
2022/07/08 12:01:36;;;;;;;1.30;0.40;;;;;;;23.80;32.00;96930.75;10324922;28;97295;-69
2022/07/08 12:06:46;;;;;;;1.17;0.30;;;;;;;24.03;29.80;96919.50;10321805;28;96913;-69
2022/07/08 12:11:51;;;;;;;0.47;0.30;;;;;;;24.25;30.21;96912.78;10329847;28;97373;-69
2022/07/08 12:16:56;;;;;;;0.70;0.40;;;;;;;24.52;30.66;96915.22;10311378;28;97126;-69
2022/07/08 12:22:01;;;;;;;0.50;0.35;;;;;;;24.85;29.13;96895.38;10323005;28;98717;-68
2022/07/08 12:27:06;;;;;;;1.05;0.40;;;;;;;24.81;30.22;96911.06;10313527;28;96992;-69
2022/07/08 12:32:11;;;;;;;1.10;0.47;;;;;;;24.74;29.35;96918.28;10325878;28;96810;-69
2022/07/08 12:37:16;;;;;;;1.88;0.50;;;;;;;24.82;29.00;96896.66;10318062;28;97060;-70
2022/07/08 12:42:25;;;;;;;2.13;0.43;;;;;;;24.90;28.76;96892.88;10329393;28;96877;-70
2022/07/08 12:47:29;;;;;;;1.58;0.50;;;;;;;25.06;28.17;96892.28;10319353;28;98009;-69
2022/07/08 12:52:32;;;;;;;1.75;0.50;;;;;;;24.93;29.15;96887.09;10322533;28;97800;-69
2022/07/08 12:57:35;;;;;;;1.92;0.28;;;;;;;24.86;28.33;96883.66;10321303;28;96846;-69
2022/07/08 13:02:39;;;;;;;0.67;0.40;;;;;;;25.08;27.32;96893.91;10328547;28;96931;-68
2022/07/08 13:07:43;;;;;;;1.05;0.40;;;;;;;24.90;27.61;96881.38;10320954;28;96863;-69
2022/07/08 13:12:46;;;;;;;0.47;0.35;;;;;;;24.98;27.28;96883.75;10318816;28;96829;-69
2022/07/08 13:17:50;;;;;;;0.85;0.47;;;;;;;25.36;26.84;96880.00;10329119;28;98314;-70
2022/07/08 13:22:54;;;;;;;1.88;0.40;;;;;;;25.45;26.16;96881.28;10319341;28;96914;-68
2022/07/08 13:27:57;;;;;;;1.25;0.60;;;;;;;25.56;25.34;96879.72;10329053;28;97937;-70
2022/07/08 13:33:01;;;;;;;0.70;0.38;;;;;;;25.74;24.79;96882.34;10324924;28;97179;-69
2022/07/08 13:38:04;;;;;;;1.98;0.40;;;;;;;25.78;25.47;96877.38;10336746;28;96746;-69
2022/07/08 13:43:07;;;;;;;2.40;0.47;;;;;;;25.83;25.19;96874.81;10332321;28;96836;-69
2022/07/08 13:48:11;;;;;;;3.10;0.40;;;;;;;25.98;24.94;96877.88;10334983;28;97892;-70
2022/07/08 13:53:14;;;;;;;0.95;0.40;;;;;;;26.16;23.86;96868.94;10340039;28;97894;-69
2022/07/08 13:58:17;;;;;;;1.13;0.60;;;;;;;26.55;24.26;96871.16;10345926;28;96803;-70
2022/07/08 14:03:21;;;;;;;2.07;0.40;;;;;;;26.79;23.69;96871.16;10334825;28;97128;-71
2022/07/08 14:08:24;;;;;;;0.82;0.65;;;;;;;27.03;24.08;96878.13;10339387;28;99295;-69
2022/07/08 14:13:43;;;;;;;0.50;0.32;;;;;;;29.15;22.67;96867.09;10336341;28;97094;-70
2022/07/08 14:18:47;;;;;;;0.47;0.45;;;;;;;31.02;21.05;96869.19;10337317;28;98040;-70
2022/07/08 14:23:51;;;;;;;2.53;0.40;;;;;;;32.19;20.31;96875.94;10328893;28;96854;-69
2022/07/08 14:28:54;;;;;;;1.95;0.40;;;;;;;33.03;19.34;96857.41;10333134;28;97081;-69
2022/07/08 14:33:58;;;;;;;1.60;0.55;;;;;;;33.83;18.98;96859.16;10337444;28;96774;-69
2022/07/08 14:39:01;;;;;;;1.52;0.43;;;;;;;34.77;18.24;96865.41;10339420;28;96791;-69
2022/07/08 14:44:04;;;;;;;1.58;0.30;;;;;;;35.35;17.30;96840.00;10344242;28;97210;-68
2022/07/08 14:49:08;;;;;;;2.85;0.52;;;;;;;35.58;17.11;96857.31;10334050;28;97106;-70
2022/07/08 14:54:11;;;;;;;1.40;0.60;;;;;;;36.17;16.98;96848.81;10335178;28;97135;-70
2022/07/08 14:59:14;;;;;;;2.38;0.50;;;;;;;36.82;16.45;96845.25;10328543;28;97115;-69
2022/07/08 15:04:19;;;;;;;0.90;0.45;;;;;;;35.75;16.80;96845.16;10328844;28;96888;-69
2022/07/08 15:09:24;;;;;;;2.30;0.40;;;;;;;35.86;17.01;96838.44;10328894;28;96891;-69
2022/07/08 15:34:59;;;;;;;1.10;0.70;;;;;;;36.04;17.38;96826.72;10384306;27;97943;-71
2022/07/08 15:40:01;;;;;;;3.70;0.60;;;;;;;35.81;16.90;96811.38;10367528;28;96877;-71
2022/07/08 15:45:06;;;;;;;1.55;0.65;;;;;;;35.86;16.60;96819.41;10364565;28;98487;-71
2022/07/08 15:50:10;;;;;;;3.42;0.35;;;;;;;36.50;15.92;96816.16;10369142;28;97201;-71
2022/07/08 15:55:14;;;;;;;1.25;0.38;;;;;;;36.84;15.85;96815.78;10367427;28;97926;-71
2022/07/08 16:00:18;;;;;;;0.60;0.50;;;;;;;37.33;15.79;96799.78;10366857;28;96879;-74
2022/07/08 16:05:22;;;;;;;1.70;0.40;;;;;;;37.31;16.01;96799.31;10363351;28;98375;-75
2022/07/08 16:10:25;;;;;;;2.25;0.70;;;;;;;37.32;15.47;96806.38;10369698;28;96968;-75
2022/07/08 16:15:28;;;;;;;0.93;0.50;;;;;;;37.46;15.63;96809.84;10367378;28;96782;-76
2022/07/08 16:20:32;;;;;;;1.58;0.65;;;;;;;37.51;16.20;96812.47;10369457;28;96765;-76
2022/07/08 16:25:36;;;;;;;2.63;0.50;;;;;;;36.63;16.16;96807.22;10366415;28;98420;-77
2022/07/08 16:30:39;;;;;;;2.13;0.60;;;;;;;36.38;16.74;96801.16;10367328;28;97056;-76
2022/07/08 16:35:44;;;;;;;1.65;0.50;;;;;;;36.33;17.33;96805.84;10354529;28;98503;-76
2022/07/08 16:40:47;;;;;;;3.35;0.75;;;;;;;36.96;16.84;96802.47;10366038;28;98496;-74
2022/07/08 16:45:50;;;;;;;2.63;0.60;;;;;;;37.41;16.88;96812.69;10345152;28;96762;-76
2022/07/08 16:50:54;;;;;;;2.03;0.88;;;;;;;36.37;17.35;96794.09;10346669;28;97317;-77
2022/07/08 16:55:57;;;;;;;2.40;0.82;;;;;;;36.31;17.30;96800.75;10340969;28;96996;-76
2022/07/08 17:01:00;;;;;;;1.92;0.75;;;;;;;36.07;18.13;96809.84;10340990;28;96840;-75
2022/07/08 17:06:05;;;;;;;1.95;0.52;;;;;;;36.20;17.66;96800.06;10336494;28;97192;-79
2022/07/08 17:11:08;;;;;;;2.10;0.75;;;;;;;35.80;18.10;96794.25;10337454;28;98344;-75
2022/07/08 17:16:12;;;;;;;35.67;32.33;;;;;;;35.78;18.64;96795.66;10333418;28;99268;-75
2022/07/08 17:21:19;;;;;;;2.67;2.47;;;;;;;35.56;18.38;96796.25;10329478;28;97784;-77
2022/07/08 17:26:22;;;;;;;5.15;1.00;;;;;;;35.56;18.52;96797.03;10327643;28;97726;-74
2022/07/08 17:31:25;;;;;;;2.00;1.80;;;;;;;34.96;19.35;96797.59;10328676;28;99516;-74
2022/07/08 17:36:29;;;;;;;2.53;0.80;;;;;;;34.91;19.80;96795.75;10332893;28;98373;-73
2022/07/08 17:41:32;;;;;;;1.33;0.85;;;;;;;34.90;19.72;96802.28;10329670;28;99340;-71
2022/07/08 17:46:36;;;;;;;2.20;0.93;;;;;;;34.70;19.83;96810.69;10331238;28;97741;-77
2022/07/08 17:51:40;;;;;;;4.82;2.63;;;;;;;34.45;20.16;96803.59;10339196;28;96691;-71
2022/07/08 17:56:43;;;;;;;2.38;0.80;;;;;;;34.02;20.53;96798.84;10336844;28;96865;-73
2022/07/08 18:01:46;;;;;;;1.48;0.65;;;;;;;33.60;21.11;96800.25;10338658;28;96799;-73
2022/07/08 18:06:51;;;;;;;3.67;0.68;;;;;;;32.98;21.50;96800.59;10338293;28;96817;-74
2022/07/08 18:11:54;;;;;;;1.25;0.65;;;;;;;32.33;22.14;96801.31;10338724;28;97319;-74
2022/07/08 18:16:57;;;;;;;1.63;0.75;;;;;;;30.10;24.26;96805.53;10339765;28;96796;-70
2022/07/08 18:22:01;;;;;;;2.63;0.90;;;;;;;28.19;26.22;96799.13;10338241;28;96775;-68
2022/07/08 18:27:05;;;;;;;1.80;1.15;;;;;;;26.62;28.01;96806.75;10336328;28;99273;-70
2022/07/08 18:32:08;;;;;;;1.50;0.73;;;;;;;25.81;28.96;96801.97;10336334;28;97432;-71
2022/07/08 18:37:14;;;;;;;2.22;1.00;;;;;;;25.35;30.03;96814.16;10338204;28;96806;-70
2022/07/08 18:42:19;;;;;;;5.10;1.30;;;;;;;24.94;30.80;96813.06;10337508;28;96918;-70
2022/07/08 18:47:22;;;;;;;3.60;1.30;;;;;;;24.42;31.87;96808.91;10333453;28;96869;-69
2022/07/08 18:52:27;;;;;;;2.92;1.00;;;;;;;24.12;32.33;96820.28;10324958;28;98551;-70
2022/07/08 18:57:30;;;;;;;3.05;1.10;;;;;;;23.86;32.63;96828.47;10326167;28;97557;-69
2022/07/08 19:02:32;;;;;;;5.03;2.28;;;;;;;23.65;32.85;96833.16;10330301;28;98325;-72
2022/07/08 19:07:37;;;;;;;7.50;2.27;;;;;;;23.48;33.30;96837.38;10322150;28;97564;-71
2022/07/08 19:12:41;;;;;;;2.22;1.00;;;;;;;23.22;33.99;96844.47;10324707;28;99356;-71
2022/07/08 19:17:44;;;;;;;2.77;1.20;;;;;;;22.94;34.52;96852.78;10339175;28;96790;-70
2022/07/08 19:59:28;;;;;;;4.55;1.40;;;;;;;21.30;38.61;96879.00;9988902;29;100201;-70
2022/07/08 20:04:31;;;;;;;3.42;1.42;;;;;;;21.22;38.54;96887.13;10071560;28;98960;-72
2022/07/08 20:09:34;;;;;;;3.00;1.13;;;;;;;21.10;39.19;96898.34;10127644;28;97964;-70
2022/07/08 20:14:38;;;;;;;3.28;1.35;;;;;;;20.98;39.06;96901.75;10203605;28;98946;-70
2022/07/08 20:19:41;;;;;;;5.18;1.60;;;;;;;20.90;39.24;96900.91;10208670;28;97183;-69
2022/07/08 20:24:44;;;;;;;3.05;1.30;;;;;;;20.81;39.42;96907.41;10214507;28;97008;-69
2022/07/08 20:29:50;;;;;;;2.45;0.85;;;;;;;20.70;39.51;96906.09;10303824;28;97428;-70
2022/07/08 20:34:54;;;;;;;3.70;1.35;;;;;;;20.62;39.56;96908.91;10337097;28;96846;-69
2022/07/08 20:39:56;;;;;;;3.07;1.00;;;;;;;20.53;40.13;96920.69;10340230;28;96842;-70
2022/07/08 20:45:01;;;;;;;2.97;1.13;;;;;;;20.45;40.45;96926.13;10339815;28;96814;-70
2022/07/08 20:50:06;;;;;;;2.40;1.20;;;;;;;20.36;41.04;96923.63;10330059;28;97780;-70
2022/07/08 20:55:11;;;;;;;2.40;1.20;;;;;;;20.28;40.88;96928.25;10339894;28;97302;-69
2022/07/08 21:00:18;;;;;;;5.30;1.35;;;;;;;20.19;41.70;96927.56;10333372;28;97780;-70
2022/07/08 21:05:21;;;;;;;3.15;1.05;;;;;;;20.06;41.63;96919.47;10344767;28;97076;-69
2022/07/08 21:10:24;;;;;;;3.78;1.20;;;;;;;19.94;41.85;96920.00;10336451;28;96895;-70
2022/07/08 21:15:29;;;;;;;4.22;1.20;;;;;;;19.86;41.48;96922.78;10333409;28;98574;-70
2022/07/08 21:20:31;;;;;;;3.90;1.40;;;;;;;19.77;41.48;96926.53;10341190;28;97431;-70
2022/07/08 21:25:34;;;;;;;2.95;1.38;;;;;;;19.79;41.05;96924.53;10340831;28;97096;-70
2022/07/08 21:30:39;;;;;;;1.95;1.08;;;;;;;19.75;41.58;96923.28;10339409;28;96921;-69
2022/07/08 21:35:42;;;;;;;4.22;1.48;;;;;;;19.70;40.95;96925.66;10338343;28;97246;-70
2022/07/08 21:40:45;;;;;;;1.98;0.93;;;;;;;19.70;40.94;96925.66;10340884;28;97620;-70
2022/07/08 21:45:50;;;;;;;2.47;1.42;;;;;;;19.68;41.64;96928.50;10340226;28;97622;-70
2022/07/08 21:50:53;;;;;;;3.00;1.73;;;;;;;19.66;41.00;96921.72;10339158;28;96733;-70
2022/07/08 21:55:56;;;;;;;2.55;1.25;;;;;;;19.57;41.08;96921.03;10339960;28;97080;-69
2022/07/08 22:01:01;;;;;;;3.23;1.33;;;;;;;19.53;41.83;96925.88;10334443;28;97216;-70
2022/07/08 22:06:05;;;;;;;2.78;1.23;;;;;;;19.56;41.08;96924.72;10337659;28;96898;-70
2022/07/08 22:11:07;;;;;;;3.20;1.55;;;;;;;19.58;41.52;96922.69;10338832;28;97252;-69
2022/07/08 22:16:12;;;;;;;3.92;1.55;;;;;;;19.53;41.05;96923.22;10339026;28;97124;-70
2022/07/08 22:21:15;;;;;;;3.13;1.60;;;;;;;19.49;41.22;96924.63;10338383;28;96828;-69
2022/07/08 22:26:18;;;;;;;2.90;1.45;;;;;;;19.43;41.41;96928.00;10338324;28;98911;-70
2022/07/08 22:31:22;;;;;;;3.35;1.42;;;;;;;19.40;40.92;96921.28;10333096;28;98664;-70
2022/07/08 22:36:25;;;;;;;2.22;1.42;;;;;;;19.39;41.71;96922.25;10329032;28;97732;-70
2022/07/08 22:41:28;;;;;;;3.03;1.48;;;;;;;19.34;41.70;96913.25;10333215;28;98561;-70
2022/07/08 22:46:32;;;;;;;2.35;1.25;;;;;;;19.32;40.96;96907.31;10332393;28;96958;-70
2022/07/08 22:51:35;;;;;;;1.98;1.23;;;;;;;19.29;41.00;96910.34;10332554;28;96805;-69
2022/07/08 22:56:38;;;;;;;3.28;1.45;;;;;;;19.24;41.43;96906.44;10335083;28;98829;-69
2022/07/08 23:01:42;;;;;;;2.30;1.25;;;;;;;19.14;42.07;96916.47;10338423;28;96838;-70
2022/07/08 23:06:45;;;;;;;1.92;1.35;;;;;;;19.10;41.55;96915.19;10338058;28;98638;-70
2022/07/08 23:11:48;;;;;;;2.40;1.38;;;;;;;19.03;41.74;96909.81;10337503;28;97247;-69
2022/07/08 23:16:52;;;;;;;3.50;1.40;;;;;;;18.98;41.77;96906.09;10333171;28;97240;-69
2022/07/08 23:21:55;;;;;;;4.32;1.10;;;;;;;19.00;42.00;96901.41;10333339;28;96845;-70
2022/07/08 23:26:58;;;;;;;2.92;1.40;;;;;;;18.98;41.90;96911.38;10328369;28;98613;-69
2022/07/08 23:32:03;;;;;;;2.58;1.33;;;;;;;18.99;42.17;96913.84;10330766;28;96815;-69
2022/07/08 23:37:06;;;;;;;2.55;1.25;;;;;;;19.00;42.06;96912.00;10333327;28;97340;-69
2022/07/08 23:42:08;;;;;;;2.35;1.35;;;;;;;18.87;43.12;96916.13;10337715;28;96773;-69
2022/07/08 23:47:13;;;;;;;2.08;1.40;;;;;;;18.91;42.80;96899.88;10344670;28;96950;-69
2022/07/08 23:52:16;;;;;;;3.67;1.40;;;;;;;18.85;42.67;96910.16;10333549;28;97939;-70
2022/07/08 23:57:18;;;;;;;2.25;1.48;;;;;;;18.82;42.67;96902.59;10337404;28;98851;-69
